sensor_id;sensor_type;location;lat;lon;timestamp;P1;durP1;ratioP1;P2;durP2;ratioP2
3819;SDS011;1925;51.356;9.530;2022-12-20T00:01:55;21.92;;;14.00;;
3819;SDS011;1925;51.356;9.530;2022-12-20T00:04:21;20.50;;;13.70;;
3819;SDS011;1925;51.356;9.530;2022-12-20T00:06:47;23.90;;;14.50;;
3819;SDS011;1925;51.356;9.530;2022-12-20T00:09:13;24.07;;;14.20;;
3819;SDS011;1925;51.356;9.530;2022-12-20T00:11:39;24.17;;;15.97;;
3819;SDS011;1925;51.356;9.530;2022-12-20T00:14:05;22.80;;;15.15;;
3819;SDS011;1925;51.356;9.530;2022-12-20T00:16:31;25.48;;;15.52;;
3819;SDS011;1925;51.356;9.530;2022-12-20T00:18:58;27.60;;;15.50;;
3819;SDS011;1925;51.356;9.530;2022-12-20T00:21:25;22.77;;;14.38;;
3819;SDS011;1925;51.356;9.530;2022-12-20T00:23:51;23.38;;;15.88;;
3819;SDS011;1925;51.356;9.530;2022-12-20T00:26:19;23.13;;;15.70;;
3819;SDS011;1925;51.356;9.530;2022-12-20T00:28:45;26.50;;;17.75;;
3819;SDS011;1925;51.356;9.530;2022-12-20T00:31:12;20.17;;;13.93;;
3819;SDS011;1925;51.356;9.530;2022-12-20T00:33:38;29.20;;;14.88;;
3819;SDS011;1925;51.356;9.530;2022-12-20T00:36:05;20.98;;;14.90;;
3819;SDS011;1925;51.356;9.530;2022-12-20T00:38:32;27.13;;;15.98;;
3819;SDS011;1925;51.356;9.530;2022-12-20T00:41:02;26.20;;;15.40;;
3819;SDS011;1925;51.356;9.530;2022-12-20T00:43:28;21.83;;;13.50;;
3819;SDS011;1925;51.356;9.530;2022-12-20T00:45:55;23.52;;;15.80;;
3819;SDS011;1925;51.356;9.530;2022-12-20T00:48:21;19.42;;;13.20;;
3819;SDS011;1925;51.356;9.530;2022-12-20T00:50:47;22.70;;;14.35;;
3819;SDS011;1925;51.356;9.530;2022-12-20T00:53:13;20.65;;;13.98;;
3819;SDS011;1925;51.356;9.530;2022-12-20T00:55:43;17.63;;;13.60;;
3819;SDS011;1925;51.356;9.530;2022-12-20T00:58:09;21.52;;;13.82;;
3819;SDS011;1925;51.356;9.530;2022-12-20T01:00:35;22.15;;;15.20;;
3819;SDS011;1925;51.356;9.530;2022-12-20T01:03:01;20.75;;;14.00;;
3819;SDS011;1925;51.356;9.530;2022-12-20T01:05:27;18.70;;;13.13;;
3819;SDS011;1925;51.356;9.530;2022-12-20T01:07:53;22.67;;;14.20;;
3819;SDS011;1925;51.356;9.530;2022-12-20T01:10:19;20.27;;;14.17;;
3819;SDS011;1925;51.356;9.530;2022-12-20T01:12:45;23.00;;;14.32;;
3819;SDS011;1925;51.356;9.530;2022-12-20T01:15:11;17.53;;;13.50;;
3819;SDS011;1925;51.356;9.530;2022-12-20T01:17:37;24.95;;;15.98;;
3819;SDS011;1925;51.356;9.530;2022-12-20T01:20:04;21.57;;;14.20;;
3819;SDS011;1925;51.356;9.530;2022-12-20T01:22:30;23.58;;;15.80;;
3819;SDS011;1925;51.356;9.530;2022-12-20T01:24:56;22.77;;;14.85;;
3819;SDS011;1925;51.356;9.530;2022-12-20T01:27:22;23.02;;;14.65;;
3819;SDS011;1925;51.356;9.530;2022-12-20T01:29:48;27.40;;;15.43;;
3819;SDS011;1925;51.356;9.530;2022-12-20T01:32:14;21.80;;;14.63;;
3819;SDS011;1925;51.356;9.530;2022-12-20T01:34:40;20.00;;;15.50;;
3819;SDS011;1925;51.356;9.530;2022-12-20T01:37:06;21.60;;;15.30;;
3819;SDS011;1925;51.356;9.530;2022-12-20T01:39:32;27.65;;;15.43;;
3819;SDS011;1925;51.356;9.530;2022-12-20T01:41:58;26.88;;;13.95;;
3819;SDS011;1925;51.356;9.530;2022-12-20T01:46:51;23.77;;;14.80;;
3819;SDS011;1925;51.356;9.530;2022-12-20T01:49:37;20.13;;;13.32;;
3819;SDS011;1925;51.356;9.530;2022-12-20T01:52:14;21.40;;;14.57;;
3819;SDS011;1925;51.356;9.530;2022-12-20T01:54:42;22.52;;;14.27;;
3819;SDS011;1925;51.356;9.530;2022-12-20T01:57:11;21.05;;;14.32;;
3819;SDS011;1925;51.356;9.530;2022-12-20T01:59:39;21.35;;;14.43;;
3819;SDS011;1925;51.356;9.530;2022-12-20T02:02:06;24.02;;;13.75;;
3819;SDS011;1925;51.356;9.530;2022-12-20T02:04:33;22.60;;;15.15;;
3819;SDS011;1925;51.356;9.530;2022-12-20T02:06:59;20.98;;;15.38;;
3819;SDS011;1925;51.356;9.530;2022-12-20T02:09:26;21.20;;;14.85;;
3819;SDS011;1925;51.356;9.530;2022-12-20T02:17:07;20.87;;;13.10;;
3819;SDS011;1925;51.356;9.530;2022-12-20T02:22:28;22.83;;;13.98;;
3819;SDS011;1925;51.356;9.530;2022-12-20T02:25:06;23.10;;;15.52;;
3819;SDS011;1925;51.356;9.530;2022-12-20T02:32:43;26.10;;;16.17;;
3819;SDS011;1925;51.356;9.530;2022-12-20T02:35:12;22.88;;;13.77;;
3819;SDS011;1925;51.356;9.530;2022-12-20T02:37:52;19.50;;;14.13;;
3819;SDS011;1925;51.356;9.530;2022-12-20T02:40:20;22.92;;;15.60;;
3819;SDS011;1925;51.356;9.530;2022-12-20T02:42:47;21.42;;;14.40;;
3819;SDS011;1925;51.356;9.530;2022-12-20T02:45:14;21.88;;;14.65;;
3819;SDS011;1925;51.356;9.530;2022-12-20T02:50:13;20.10;;;14.23;;
3819;SDS011;1925;51.356;9.530;2022-12-20T02:52:41;22.98;;;14.90;;
3819;SDS011;1925;51.356;9.530;2022-12-20T02:55:07;20.70;;;14.50;;
3819;SDS011;1925;51.356;9.530;2022-12-20T02:57:44;20.95;;;13.80;;
3819;SDS011;1925;51.356;9.530;2022-12-20T03:00:14;22.05;;;14.90;;
3819;SDS011;1925;51.356;9.530;2022-12-20T03:02:41;21.73;;;14.80;;
3819;SDS011;1925;51.356;9.530;2022-12-20T03:05:27;23.80;;;14.95;;
3819;SDS011;1925;51.356;9.530;2022-12-20T03:07:54;21.45;;;14.40;;
3819;SDS011;1925;51.356;9.530;2022-12-20T03:10:20;24.73;;;16.03;;
3819;SDS011;1925;51.356;9.530;2022-12-20T03:12:46;27.13;;;16.10;;
3819;SDS011;1925;51.356;9.530;2022-12-20T03:15:12;27.27;;;16.63;;
3819;SDS011;1925;51.356;9.530;2022-12-20T03:17:38;23.08;;;14.77;;
3819;SDS011;1925;51.356;9.530;2022-12-20T03:20:04;22.83;;;15.52;;
3819;SDS011;1925;51.356;9.530;2022-12-20T03:22:31;23.90;;;17.05;;
3819;SDS011;1925;51.356;9.530;2022-12-20T03:24:57;27.77;;;17.17;;
3819;SDS011;1925;51.356;9.530;2022-12-20T03:27:23;20.88;;;14.73;;
3819;SDS011;1925;51.356;9.530;2022-12-20T03:29:51;20.17;;;14.77;;
3819;SDS011;1925;51.356;9.530;2022-12-20T03:32:17;21.70;;;15.10;;
3819;SDS011;1925;51.356;9.530;2022-12-20T03:34:43;26.23;;;13.97;;
3819;SDS011;1925;51.356;9.530;2022-12-20T03:37:09;20.43;;;13.80;;
3819;SDS011;1925;51.356;9.530;2022-12-20T03:39:35;23.90;;;15.18;;
3819;SDS011;1925;51.356;9.530;2022-12-20T03:42:01;25.17;;;15.77;;
3819;SDS011;1925;51.356;9.530;2022-12-20T03:44:27;27.63;;;16.33;;
3819;SDS011;1925;51.356;9.530;2022-12-20T03:46:53;22.33;;;15.10;;
3819;SDS011;1925;51.356;9.530;2022-12-20T03:49:19;21.73;;;15.10;;
3819;SDS011;1925;51.356;9.530;2022-12-20T03:51:45;24.27;;;16.23;;
3819;SDS011;1925;51.356;9.530;2022-12-20T03:54:10;24.83;;;15.87;;
3819;SDS011;1925;51.356;9.530;2022-12-20T03:56:36;20.07;;;13.90;;
3819;SDS011;1925;51.356;9.530;2022-12-20T03:59:02;21.05;;;16.10;;
3819;SDS011;1925;51.356;9.530;2022-12-20T04:01:29;24.83;;;15.13;;
3819;SDS011;1925;51.356;9.530;2022-12-20T04:03:55;24.15;;;16.15;;
3819;SDS011;1925;51.356;9.530;2022-12-20T04:06:22;24.40;;;16.08;;
3819;SDS011;1925;51.356;9.530;2022-12-20T04:08:48;19.23;;;13.57;;
3819;SDS011;1925;51.356;9.530;2022-12-20T04:11:14;22.85;;;15.57;;
3819;SDS011;1925;51.356;9.530;2022-12-20T04:13:41;23.05;;;14.80;;
3819;SDS011;1925;51.356;9.530;2022-12-20T04:16:07;21.95;;;14.75;;
3819;SDS011;1925;51.356;9.530;2022-12-20T04:18:33;25.50;;;15.70;;
3819;SDS011;1925;51.356;9.530;2022-12-20T04:20:59;25.20;;;14.60;;
3819;SDS011;1925;51.356;9.530;2022-12-20T04:23:25;23.52;;;16.50;;
3819;SDS011;1925;51.356;9.530;2022-12-20T04:25:51;22.80;;;14.60;;
3819;SDS011;1925;51.356;9.530;2022-12-20T04:28:17;23.77;;;17.00;;
3819;SDS011;1925;51.356;9.530;2022-12-20T04:30:43;23.10;;;15.37;;
3819;SDS011;1925;51.356;9.530;2022-12-20T04:33:09;26.40;;;16.10;;
3819;SDS011;1925;51.356;9.530;2022-12-20T04:35:36;20.23;;;14.47;;
3819;SDS011;1925;51.356;9.530;2022-12-20T04:38:02;23.48;;;15.25;;
3819;SDS011;1925;51.356;9.530;2022-12-20T04:40:28;27.45;;;15.38;;
3819;SDS011;1925;51.356;9.530;2022-12-20T04:42:54;21.33;;;14.00;;
3819;SDS011;1925;51.356;9.530;2022-12-20T04:45:20;24.87;;;15.50;;
3819;SDS011;1925;51.356;9.530;2022-12-20T04:47:46;19.50;;;13.37;;
3819;SDS011;1925;51.356;9.530;2022-12-20T04:50:12;22.20;;;14.20;;
3819;SDS011;1925;51.356;9.530;2022-12-20T04:52:38;21.55;;;14.25;;
3819;SDS011;1925;51.356;9.530;2022-12-20T04:55:22;22.48;;;13.55;;
3819;SDS011;1925;51.356;9.530;2022-12-20T04:57:48;23.20;;;16.00;;
3819;SDS011;1925;51.356;9.530;2022-12-20T05:00:14;23.17;;;14.57;;
3819;SDS011;1925;51.356;9.530;2022-12-20T05:02:41;20.85;;;13.93;;
3819;SDS011;1925;51.356;9.530;2022-12-20T05:05:07;19.85;;;14.35;;
3819;SDS011;1925;51.356;9.530;2022-12-20T05:07:33;24.63;;;15.05;;
3819;SDS011;1925;51.356;9.530;2022-12-20T05:09:59;23.20;;;15.67;;
3819;SDS011;1925;51.356;9.530;2022-12-20T05:12:25;20.60;;;14.53;;
3819;SDS011;1925;51.356;9.530;2022-12-20T05:14:51;19.17;;;13.87;;
3819;SDS011;1925;51.356;9.530;2022-12-20T05:17:17;22.60;;;14.90;;
3819;SDS011;1925;51.356;9.530;2022-12-20T05:19:43;21.77;;;15.13;;
3819;SDS011;1925;51.356;9.530;2022-12-20T05:22:10;26.60;;;16.80;;
3819;SDS011;1925;51.356;9.530;2022-12-20T05:24:54;22.38;;;14.85;;
3819;SDS011;1925;51.356;9.530;2022-12-20T05:27:39;20.40;;;14.95;;
3819;SDS011;1925;51.356;9.530;2022-12-20T05:30:05;20.40;;;14.43;;
3819;SDS011;1925;51.356;9.530;2022-12-20T05:32:31;24.23;;;13.95;;
3819;SDS011;1925;51.356;9.530;2022-12-20T05:34:57;27.43;;;14.83;;
3819;SDS011;1925;51.356;9.530;2022-12-20T05:37:23;17.30;;;12.77;;
3819;SDS011;1925;51.356;9.530;2022-12-20T05:39:49;18.23;;;13.63;;
3819;SDS011;1925;51.356;9.530;2022-12-20T05:42:15;29.15;;;14.43;;
3819;SDS011;1925;51.356;9.530;2022-12-20T05:44:41;23.45;;;13.20;;
3819;SDS011;1925;51.356;9.530;2022-12-20T05:47:07;17.60;;;12.70;;
3819;SDS011;1925;51.356;9.530;2022-12-20T05:49:33;21.48;;;14.02;;
3819;SDS011;1925;51.356;9.530;2022-12-20T05:52:00;20.20;;;13.93;;
3819;SDS011;1925;51.356;9.530;2022-12-20T05:54:26;23.83;;;14.48;;
3819;SDS011;1925;51.356;9.530;2022-12-20T05:56:52;23.27;;;14.40;;
3819;SDS011;1925;51.356;9.530;2022-12-20T05:59:18;26.90;;;14.10;;
3819;SDS011;1925;51.356;9.530;2022-12-20T06:01:44;20.45;;;12.23;;
3819;SDS011;1925;51.356;9.530;2022-12-20T06:04:10;22.67;;;13.93;;
3819;SDS011;1925;51.356;9.530;2022-12-20T06:06:36;22.87;;;13.47;;
3819;SDS011;1925;51.356;9.530;2022-12-20T06:09:02;21.67;;;13.20;;
3819;SDS011;1925;51.356;9.530;2022-12-20T06:11:28;24.70;;;13.37;;
3819;SDS011;1925;51.356;9.530;2022-12-20T06:13:54;22.40;;;11.83;;
3819;SDS011;1925;51.356;9.530;2022-12-20T06:16:20;21.60;;;12.03;;
3819;SDS011;1925;51.356;9.530;2022-12-20T06:18:47;19.05;;;12.63;;
3819;SDS011;1925;51.356;9.530;2022-12-20T06:21:14;21.17;;;11.85;;
3819;SDS011;1925;51.356;9.530;2022-12-20T06:23:40;19.08;;;12.50;;
3819;SDS011;1925;51.356;9.530;2022-12-20T06:26:06;21.23;;;11.03;;
3819;SDS011;1925;51.356;9.530;2022-12-20T06:28:33;19.77;;;12.50;;
3819;SDS011;1925;51.356;9.530;2022-12-20T06:30:59;19.83;;;13.15;;
3819;SDS011;1925;51.356;9.530;2022-12-20T06:33:25;17.70;;;11.52;;
3819;SDS011;1925;51.356;9.530;2022-12-20T06:35:51;19.90;;;12.10;;
3819;SDS011;1925;51.356;9.530;2022-12-20T06:38:18;13.77;;;11.45;;
3819;SDS011;1925;51.356;9.530;2022-12-20T06:40:44;18.15;;;12.98;;
3819;SDS011;1925;51.356;9.530;2022-12-20T06:43:10;21.60;;;12.98;;
3819;SDS011;1925;51.356;9.530;2022-12-20T06:45:35;22.10;;;12.37;;
3819;SDS011;1925;51.356;9.530;2022-12-20T06:48:01;18.27;;;12.07;;
3819;SDS011;1925;51.356;9.530;2022-12-20T06:50:27;16.73;;;12.03;;
3819;SDS011;1925;51.356;9.530;2022-12-20T06:52:53;18.17;;;11.47;;
3819;SDS011;1925;51.356;9.530;2022-12-20T06:55:19;22.50;;;12.80;;
3819;SDS011;1925;51.356;9.530;2022-12-20T06:57:45;18.97;;;12.37;;
3819;SDS011;1925;51.356;9.530;2022-12-20T07:00:11;16.83;;;11.20;;
3819;SDS011;1925;51.356;9.530;2022-12-20T07:02:37;14.90;;;10.00;;
3819;SDS011;1925;51.356;9.530;2022-12-20T07:05:04;15.23;;;10.43;;
3819;SDS011;1925;51.356;9.530;2022-12-20T07:07:31;13.75;;;8.45;;
3819;SDS011;1925;51.356;9.530;2022-12-20T07:09:56;13.37;;;9.23;;
3819;SDS011;1925;51.356;9.530;2022-12-20T07:12:23;15.48;;;9.73;;
3819;SDS011;1925;51.356;9.530;2022-12-20T07:14:49;10.48;;;8.70;;
3819;SDS011;1925;51.356;9.530;2022-12-20T07:17:15;17.77;;;10.80;;
3819;SDS011;1925;51.356;9.530;2022-12-20T07:19:41;14.80;;;10.20;;
3819;SDS011;1925;51.356;9.530;2022-12-20T07:22:07;13.23;;;9.60;;
3819;SDS011;1925;51.356;9.530;2022-12-20T07:24:33;12.25;;;9.35;;
3819;SDS011;1925;51.356;9.530;2022-12-20T07:26:59;13.70;;;9.93;;
3819;SDS011;1925;51.356;9.530;2022-12-20T07:29:26;15.23;;;10.23;;
3819;SDS011;1925;51.356;9.530;2022-12-20T07:31:52;16.00;;;10.88;;
3819;SDS011;1925;51.356;9.530;2022-12-20T07:34:18;14.63;;;10.50;;
3819;SDS011;1925;51.356;9.530;2022-12-20T07:36:44;16.33;;;10.20;;
3819;SDS011;1925;51.356;9.530;2022-12-20T07:39:10;13.50;;;10.40;;
3819;SDS011;1925;51.356;9.530;2022-12-20T07:41:36;14.33;;;10.83;;
3819;SDS011;1925;51.356;9.530;2022-12-20T07:44:02;13.00;;;9.25;;
3819;SDS011;1925;51.356;9.530;2022-12-20T07:46:28;12.32;;;9.88;;
3819;SDS011;1925;51.356;9.530;2022-12-20T07:48:54;14.93;;;9.13;;
3819;SDS011;1925;51.356;9.530;2022-12-20T07:51:22;9.52;;;8.52;;
3819;SDS011;1925;51.356;9.530;2022-12-20T07:53:53;11.00;;;8.38;;
3819;SDS011;1925;51.356;9.530;2022-12-20T07:56:20;12.85;;;8.50;;
3819;SDS011;1925;51.356;9.530;2022-12-20T07:58:47;14.48;;;8.63;;
3819;SDS011;1925;51.356;9.530;2022-12-20T08:01:13;12.02;;;8.48;;
3819;SDS011;1925;51.356;9.530;2022-12-20T08:03:44;14.90;;;9.40;;
3819;SDS011;1925;51.356;9.530;2022-12-20T08:06:11;15.05;;;9.68;;
3819;SDS011;1925;51.356;9.530;2022-12-20T08:08:37;16.60;;;10.90;;
3819;SDS011;1925;51.356;9.530;2022-12-20T08:11:05;15.05;;;9.15;;
3819;SDS011;1925;51.356;9.530;2022-12-20T08:13:33;15.10;;;9.70;;
3819;SDS011;1925;51.356;9.530;2022-12-20T08:15:59;14.98;;;10.15;;
3819;SDS011;1925;51.356;9.530;2022-12-20T08:18:25;19.10;;;10.50;;
3819;SDS011;1925;51.356;9.530;2022-12-20T08:20:51;23.08;;;13.45;;
3819;SDS011;1925;51.356;9.530;2022-12-20T08:23:17;23.87;;;12.13;;
3819;SDS011;1925;51.356;9.530;2022-12-20T08:25:43;20.13;;;13.13;;
3819;SDS011;1925;51.356;9.530;2022-12-20T08:28:09;18.20;;;11.55;;
3819;SDS011;1925;51.356;9.530;2022-12-20T08:30:35;19.20;;;11.87;;
3819;SDS011;1925;51.356;9.530;2022-12-20T08:33:02;17.67;;;9.88;;
3819;SDS011;1925;51.356;9.530;2022-12-20T08:35:29;17.45;;;9.57;;
3819;SDS011;1925;51.356;9.530;2022-12-20T08:37:55;14.70;;;10.10;;
3819;SDS011;1925;51.356;9.530;2022-12-20T08:40:21;15.20;;;9.90;;
3819;SDS011;1925;51.356;9.530;2022-12-20T08:42:47;12.48;;;9.20;;
3819;SDS011;1925;51.356;9.530;2022-12-20T08:45:13;17.80;;;9.40;;
3819;SDS011;1925;51.356;9.530;2022-12-20T08:47:39;13.75;;;9.27;;
3819;SDS011;1925;51.356;9.530;2022-12-20T08:50:05;16.07;;;8.77;;
3819;SDS011;1925;51.356;9.530;2022-12-20T08:52:31;16.45;;;10.35;;
3819;SDS011;1925;51.356;9.530;2022-12-20T08:54:57;14.00;;;9.30;;
3819;SDS011;1925;51.356;9.530;2022-12-20T08:57:23;13.87;;;9.30;;
3819;SDS011;1925;51.356;9.530;2022-12-20T08:59:49;14.20;;;9.13;;
3819;SDS011;1925;51.356;9.530;2022-12-20T09:02:15;12.75;;;8.52;;
3819;SDS011;1925;51.356;9.530;2022-12-20T09:04:41;15.83;;;8.90;;
3819;SDS011;1925;51.356;9.530;2022-12-20T09:07:08;17.30;;;10.20;;
3819;SDS011;1925;51.356;9.530;2022-12-20T09:09:34;15.07;;;9.07;;
3819;SDS011;1925;51.356;9.530;2022-12-20T09:12:00;14.68;;;9.90;;
3819;SDS011;1925;51.356;9.530;2022-12-20T09:14:26;14.60;;;9.20;;
3819;SDS011;1925;51.356;9.530;2022-12-20T09:16:52;23.03;;;10.30;;
3819;SDS011;1925;51.356;9.530;2022-12-20T09:19:18;18.87;;;10.60;;
3819;SDS011;1925;51.356;9.530;2022-12-20T09:21:44;12.00;;;7.93;;
3819;SDS011;1925;51.356;9.530;2022-12-20T09:24:10;10.50;;;8.47;;
3819;SDS011;1925;51.356;9.530;2022-12-20T09:26:36;15.43;;;10.17;;
3819;SDS011;1925;51.356;9.530;2022-12-20T09:29:04;13.95;;;7.93;;
3819;SDS011;1925;51.356;9.530;2022-12-20T09:31:30;19.60;;;8.90;;
3819;SDS011;1925;51.356;9.530;2022-12-20T09:33:57;13.67;;;8.37;;
3819;SDS011;1925;51.356;9.530;2022-12-20T09:36:23;11.07;;;7.88;;
3819;SDS011;1925;51.356;9.530;2022-12-20T09:38:49;9.25;;;7.72;;
3819;SDS011;1925;51.356;9.530;2022-12-20T09:41:24;9.65;;;7.40;;
3819;SDS011;1925;51.356;9.530;2022-12-20T09:43:50;15.65;;;9.20;;
3819;SDS011;1925;51.356;9.530;2022-12-20T09:46:16;12.07;;;8.27;;
3819;SDS011;1925;51.356;9.530;2022-12-20T09:48:43;13.88;;;7.22;;
3819;SDS011;1925;51.356;9.530;2022-12-20T09:56:58;10.25;;;7.40;;
3819;SDS011;1925;51.356;9.530;2022-12-20T09:59:24;6.97;;;6.15;;
3819;SDS011;1925;51.356;9.530;2022-12-20T10:01:50;7.67;;;5.73;;
3819;SDS011;1925;51.356;9.530;2022-12-20T10:04:20;7.60;;;5.90;;
3819;SDS011;1925;51.356;9.530;2022-12-20T10:22:47;11.63;;;8.13;;
3819;SDS011;1925;51.356;9.530;2022-12-20T10:27:46;11.50;;;8.38;;
3819;SDS011;1925;51.356;9.530;2022-12-20T10:30:16;10.35;;;6.90;;
3819;SDS011;1925;51.356;9.530;2022-12-20T10:32:43;10.20;;;7.90;;
3819;SDS011;1925;51.356;9.530;2022-12-20T10:37:36;9.37;;;7.13;;
3819;SDS011;1925;51.356;9.530;2022-12-20T10:40:02;13.25;;;7.70;;
3819;SDS011;1925;51.356;9.530;2022-12-20T10:42:37;13.23;;;7.32;;
3819;SDS011;1925;51.356;9.530;2022-12-20T10:45:17;11.98;;;8.27;;
3819;SDS011;1925;51.356;9.530;2022-12-20T10:47:49;11.10;;;7.85;;
3819;SDS011;1925;51.356;9.530;2022-12-20T10:50:19;11.93;;;7.30;;
3819;SDS011;1925;51.356;9.530;2022-12-20T10:53:00;9.55;;;7.10;;
3819;SDS011;1925;51.356;9.530;2022-12-20T10:55:37;6.30;;;5.32;;
3819;SDS011;1925;51.356;9.530;2022-12-20T10:58:04;11.85;;;6.50;;
3819;SDS011;1925;51.356;9.530;2022-12-20T11:00:31;7.95;;;5.50;;
3819;SDS011;1925;51.356;9.530;2022-12-20T11:03:01;16.10;;;7.53;;
3819;SDS011;1925;51.356;9.530;2022-12-20T11:05:27;13.23;;;6.88;;
3819;SDS011;1925;51.356;9.530;2022-12-20T11:07:55;8.33;;;6.60;;
3819;SDS011;1925;51.356;9.530;2022-12-20T11:10:23;9.52;;;6.10;;
3819;SDS011;1925;51.356;9.530;2022-12-20T11:12:52;12.43;;;8.13;;
3819;SDS011;1925;51.356;9.530;2022-12-20T11:15:20;9.30;;;6.68;;
3819;SDS011;1925;51.356;9.530;2022-12-20T11:17:47;10.23;;;6.75;;
3819;SDS011;1925;51.356;9.530;2022-12-20T11:25:28;8.30;;;6.20;;
3819;SDS011;1925;51.356;9.530;2022-12-20T11:28:09;9.27;;;6.93;;
3819;SDS011;1925;51.356;9.530;2022-12-20T11:33:17;8.50;;;6.13;;
3819;SDS011;1925;51.356;9.530;2022-12-20T11:41:10;8.57;;;6.43;;
3819;SDS011;1925;51.356;9.530;2022-12-20T11:43:45;8.43;;;6.10;;
3819;SDS011;1925;51.356;9.530;2022-12-20T11:46:19;7.53;;;5.93;;
3819;SDS011;1925;51.356;9.530;2022-12-20T11:56:32;9.55;;;5.40;;
3819;SDS011;1925;51.356;9.530;2022-12-20T11:58:59;9.35;;;6.15;;
3819;SDS011;1925;51.356;9.530;2022-12-20T12:01:31;13.38;;;5.80;;
3819;SDS011;1925;51.356;9.530;2022-12-20T12:05:00;7.50;;;5.80;;
3819;SDS011;1925;51.356;9.530;2022-12-20T12:06:58;8.23;;;5.78;;
3819;SDS011;1925;51.356;9.530;2022-12-20T12:09:29;7.65;;;6.18;;
3819;SDS011;1925;51.356;9.530;2022-12-20T12:11:59;12.80;;;6.93;;
3819;SDS011;1925;51.356;9.530;2022-12-20T12:14:35;8.65;;;7.18;;
3819;SDS011;1925;51.356;9.530;2022-12-20T12:17:08;6.45;;;5.50;;
3819;SDS011;1925;51.356;9.530;2022-12-20T12:19:37;6.95;;;5.32;;
3819;SDS011;1925;51.356;9.530;2022-12-20T12:22:08;8.55;;;5.00;;
3819;SDS011;1925;51.356;9.530;2022-12-20T12:24:40;9.93;;;5.93;;
3819;SDS011;1925;51.356;9.530;2022-12-20T12:27:11;8.05;;;5.78;;
3819;SDS011;1925;51.356;9.530;2022-12-20T12:29:39;7.68;;;5.40;;
3819;SDS011;1925;51.356;9.530;2022-12-20T12:32:07;11.20;;;5.40;;
3819;SDS011;1925;51.356;9.530;2022-12-20T12:34:43;7.05;;;5.72;;
3819;SDS011;1925;51.356;9.530;2022-12-20T12:44:50;7.80;;;5.85;;
3819;SDS011;1925;51.356;9.530;2022-12-20T12:47:22;11.30;;;6.43;;
3819;SDS011;1925;51.356;9.530;2022-12-20T12:49:50;9.23;;;6.55;;
3819;SDS011;1925;51.356;9.530;2022-12-20T12:53:02;9.05;;;6.10;;
3819;SDS011;1925;51.356;9.530;2022-12-20T12:57:55;8.80;;;6.55;;
3819;SDS011;1925;51.356;9.530;2022-12-20T13:00:46;6.68;;;4.75;;
3819;SDS011;1925;51.356;9.530;2022-12-20T13:03:13;9.30;;;6.90;;
3819;SDS011;1925;51.356;9.530;2022-12-20T13:05:40;7.93;;;5.50;;
3819;SDS011;1925;51.356;9.530;2022-12-20T13:08:16;8.60;;;6.90;;
3819;SDS011;1925;51.356;9.530;2022-12-20T13:13:12;9.77;;;6.20;;
3819;SDS011;1925;51.356;9.530;2022-12-20T13:18:16;6.50;;;5.60;;
3819;SDS011;1925;51.356;9.530;2022-12-20T13:21:15;8.25;;;5.60;;
3819;SDS011;1925;51.356;9.530;2022-12-20T13:23:31;6.88;;;5.38;;
3819;SDS011;1925;51.356;9.530;2022-12-20T13:25:57;8.80;;;5.40;;
3819;SDS011;1925;51.356;9.530;2022-12-20T13:35:53;6.05;;;4.22;;
3819;SDS011;1925;51.356;9.530;2022-12-20T13:38:40;8.30;;;5.00;;
3819;SDS011;1925;51.356;9.530;2022-12-20T13:43:55;6.60;;;5.22;;
3819;SDS011;1925;51.356;9.530;2022-12-20T13:49:09;13.40;;;4.43;;
3819;SDS011;1925;51.356;9.530;2022-12-20T13:51:36;7.18;;;4.53;;
3819;SDS011;1925;51.356;9.530;2022-12-20T13:54:06;5.73;;;4.90;;
3819;SDS011;1925;51.356;9.530;2022-12-20T13:56:39;6.40;;;4.70;;
3819;SDS011;1925;51.356;9.530;2022-12-20T13:59:14;7.75;;;4.20;;
3819;SDS011;1925;51.356;9.530;2022-12-20T14:01:48;8.13;;;4.20;;
3819;SDS011;1925;51.356;9.530;2022-12-20T14:04:14;5.15;;;4.03;;
3819;SDS011;1925;51.356;9.530;2022-12-20T14:06:40;6.70;;;4.47;;
3819;SDS011;1925;51.356;9.530;2022-12-20T14:09:30;6.33;;;4.83;;
3819;SDS011;1925;51.356;9.530;2022-12-20T14:11:52;7.40;;;5.13;;
3819;SDS011;1925;51.356;9.530;2022-12-20T14:14:18;6.10;;;4.43;;
3819;SDS011;1925;51.356;9.530;2022-12-20T14:16:44;23.07;;;15.10;;
3819;SDS011;1925;51.356;9.530;2022-12-20T14:19:13;45.50;;;19.50;;
3819;SDS011;1925;51.356;9.530;2022-12-20T14:21:40;47.47;;;32.85;;
3819;SDS011;1925;51.356;9.530;2022-12-20T14:24:12;7.47;;;6.15;;
3819;SDS011;1925;51.356;9.530;2022-12-20T14:26:40;9.82;;;6.10;;
3819;SDS011;1925;51.356;9.530;2022-12-20T14:29:11;9.73;;;5.47;;
3819;SDS011;1925;51.356;9.530;2022-12-20T14:31:41;6.85;;;4.93;;
3819;SDS011;1925;51.356;9.530;2022-12-20T14:36:41;6.32;;;4.78;;
3819;SDS011;1925;51.356;9.530;2022-12-20T14:39:21;6.70;;;5.07;;
3819;SDS011;1925;51.356;9.530;2022-12-20T14:41:53;6.47;;;5.55;;
3819;SDS011;1925;51.356;9.530;2022-12-20T14:44:20;9.40;;;4.72;;
3819;SDS011;1925;51.356;9.530;2022-12-20T14:46:47;6.93;;;4.95;;
3819;SDS011;1925;51.356;9.530;2022-12-20T14:49:21;7.50;;;5.32;;
3819;SDS011;1925;51.356;9.530;2022-12-20T14:51:48;11.98;;;7.20;;
3819;SDS011;1925;51.356;9.530;2022-12-20T14:56:44;7.47;;;6.70;;
3819;SDS011;1925;51.356;9.530;2022-12-20T14:59:14;8.75;;;5.65;;
3819;SDS011;1925;51.356;9.530;2022-12-20T15:01:41;11.82;;;7.07;;
3819;SDS011;1925;51.356;9.530;2022-12-20T15:06:45;9.15;;;6.60;;
3819;SDS011;1925;51.356;9.530;2022-12-20T15:09:16;9.27;;;5.32;;
3819;SDS011;1925;51.356;9.530;2022-12-20T15:11:42;7.22;;;5.70;;
3819;SDS011;1925;51.356;9.530;2022-12-20T15:16:47;5.22;;;4.38;;
3819;SDS011;1925;51.356;9.530;2022-12-20T15:19:13;8.63;;;5.60;;
3819;SDS011;1925;51.356;9.530;2022-12-20T15:21:40;7.75;;;4.72;;
3819;SDS011;1925;51.356;9.530;2022-12-20T15:24:14;11.75;;;6.93;;
3819;SDS011;1925;51.356;9.530;2022-12-20T15:26:42;8.02;;;6.15;;
3819;SDS011;1925;51.356;9.530;2022-12-20T15:29:12;7.00;;;5.77;;
3819;SDS011;1925;51.356;9.530;2022-12-20T15:31:40;7.25;;;5.30;;
3819;SDS011;1925;51.356;9.530;2022-12-20T15:34:11;5.87;;;5.27;;
3819;SDS011;1925;51.356;9.530;2022-12-20T15:36:38;5.63;;;4.28;;
3819;SDS011;1925;51.356;9.530;2022-12-20T15:39:04;9.20;;;5.30;;
3819;SDS011;1925;51.356;9.530;2022-12-20T15:41:30;7.43;;;5.90;;
3819;SDS011;1925;51.356;9.530;2022-12-20T15:43:58;9.25;;;5.28;;
3819;SDS011;1925;51.356;9.530;2022-12-20T15:46:24;7.82;;;5.80;;
3819;SDS011;1925;51.356;9.530;2022-12-20T15:48:50;8.65;;;7.32;;
3819;SDS011;1925;51.356;9.530;2022-12-20T15:51:17;8.35;;;5.85;;
3819;SDS011;1925;51.356;9.530;2022-12-20T15:53:44;10.77;;;6.60;;
3819;SDS011;1925;51.356;9.530;2022-12-20T15:56:13;10.50;;;7.00;;
3819;SDS011;1925;51.356;9.530;2022-12-20T15:58:41;18.25;;;8.60;;
3819;SDS011;1925;51.356;9.530;2022-12-20T16:01:07;17.73;;;12.13;;
3819;SDS011;1925;51.356;9.530;2022-12-20T16:03:34;25.38;;;15.90;;
3819;SDS011;1925;51.356;9.530;2022-12-20T16:06:00;16.50;;;10.40;;
3819;SDS011;1925;51.356;9.530;2022-12-20T16:08:26;16.02;;;8.35;;
3819;SDS011;1925;51.356;9.530;2022-12-20T16:10:52;23.50;;;20.77;;
3819;SDS011;1925;51.356;9.530;2022-12-20T16:13:23;9.10;;;8.10;;
3819;SDS011;1925;51.356;9.530;2022-12-20T16:15:49;8.57;;;6.22;;
3819;SDS011;1925;51.356;9.530;2022-12-20T16:18:15;8.38;;;5.68;;
3819;SDS011;1925;51.356;9.530;2022-12-20T16:20:41;11.07;;;5.18;;
3819;SDS011;1925;51.356;9.530;2022-12-20T16:23:13;6.63;;;5.13;;
3819;SDS011;1925;51.356;9.530;2022-12-20T16:25:40;8.75;;;5.10;;
3819;SDS011;1925;51.356;9.530;2022-12-20T16:28:06;7.47;;;5.60;;
3819;SDS011;1925;51.356;9.530;2022-12-20T16:30:32;8.30;;;6.17;;
3819;SDS011;1925;51.356;9.530;2022-12-20T16:32:58;5.97;;;5.05;;
3819;SDS011;1925;51.356;9.530;2022-12-20T16:35:26;7.05;;;5.35;;
3819;SDS011;1925;51.356;9.530;2022-12-20T16:37:55;6.25;;;5.18;;
3819;SDS011;1925;51.356;9.530;2022-12-20T16:40:25;7.38;;;5.75;;
3819;SDS011;1925;51.356;9.530;2022-12-20T16:42:51;5.07;;;4.65;;
3819;SDS011;1925;51.356;9.530;2022-12-20T16:45:19;7.15;;;4.88;;
3819;SDS011;1925;51.356;9.530;2022-12-20T16:47:46;9.10;;;5.82;;